Seattle, Washington
Current Conditions -  °F | °C
As of 3:53 PM on Friday 24 Oct 2014 (Local Time) from KBFI Reporting Station
Overcast Overcast  
Wind Chill: 58°   Ceiling: 12000
Heat Index: 58°   Visibility: 10mi
Dew Point: 48°   Wind: 6mph
Humidity: 70%   Direction: 300°WNW
Pressure: 29.93"   Gusts: NA
Location:  47.6°N, 122.32°W
Report Text: KBFI 242253Z 30005KT 10SM OVC120 14/09 A2993 RMK AO2 SLP136 T01440089
Loading
Personal Weather Stations






























Interactive Weather Map
Tropical Storm Tracking
New forecast layout! Learn more

10-Day Weather Forecast

Advertisements
Track Severe Weather on mobile